Time;durP1;ratioP1;P1;durP2;ratioP2;P2;SDS_P1;SDS_P2;PMS_P1;PMS_P2;Temp;Humidity;BMP_temperature;BMP_pressure;BME280_temperature;BME280_humidity;BME280_pressure;Samples;Min_cycle;Max_cycle;Signal;HPM_P1;HPM_P2
2022/05/25 00:01:53;;;;;;;8.63;5.43;;;10.60;99.90;;;;;;5050271;28;20068;-52
2022/05/25 00:04:19;;;;;;;8.00;5.88;;;10.50;99.90;;;;;;5051380;28;20037;-50
2022/05/25 00:06:46;;;;;;;7.90;5.22;;;10.50;99.90;;;;;;5050736;28;20378;-52
2022/05/25 00:09:12;;;;;;;10.32;5.90;;;10.50;99.90;;;;;;5049935;28;20052;-52
2022/05/25 00:11:38;;;;;;;11.70;6.00;;;10.50;99.90;;;;;;5051154;28;20096;-51
2022/05/25 00:14:04;;;;;;;9.38;6.50;;;10.50;99.90;;;;;;5050161;28;20064;-53
2022/05/25 00:16:30;;;;;;;8.50;5.82;;;10.60;99.90;;;;;;5051268;28;20508;-52
2022/05/25 00:21:39;;;;;;;11.10;6.85;;;10.50;99.90;;;;;;5050852;28;20075;-52
2022/05/25 00:24:05;;;;;;;9.35;6.45;;;10.60;99.90;;;;;;5053714;28;20057;-51
2022/05/25 00:26:33;;;;;;;9.85;6.85;;;10.40;99.90;;;;;;5054711;28;20037;-52
2022/05/25 00:28:59;;;;;;;9.40;6.38;;;10.50;99.90;;;;;;5055225;28;20041;-52
2022/05/25 00:31:25;;;;;;;11.57;7.00;;;10.40;99.90;;;;;;5053993;28;20056;-53
2022/05/25 00:33:51;;;;;;;12.77;6.93;;;10.40;99.90;;;;;;5037091;28;20068;-52
2022/05/25 00:36:16;;;;;;;10.27;7.63;;;10.30;99.90;;;;;;5053617;28;20086;-50
2022/05/25 00:38:42;;;;;;;11.20;7.68;;;10.30;99.90;;;;;;5054502;28;20045;-50
2022/05/25 00:41:08;;;;;;;12.23;6.97;;;10.20;99.90;;;;;;5053920;28;20124;-48
2022/05/25 00:43:33;;;;;;;8.88;6.60;;;10.30;99.90;;;;;;5036213;28;20045;-52
2022/05/25 00:46:04;;;;;;;9.13;7.00;;;10.30;99.90;;;;;;5054492;28;20047;-52
2022/05/25 00:48:45;;;;;;;12.57;7.30;;;10.30;99.90;;;;;;5053019;28;20092;-51
2022/05/25 00:51:21;;;;;;;10.68;8.00;;;10.30;99.90;;;;;;5053696;28;20132;-52
2022/05/25 00:53:59;;;;;;;11.32;7.05;;;10.30;99.90;;;;;;5053390;28;20048;-50
2022/05/25 00:56:26;;;;;;;10.63;7.43;;;10.30;99.90;;;;;;5053910;28;20361;-53
2022/05/25 00:59:15;;;;;;;13.05;7.72;;;10.30;99.90;;;;;;5054079;28;20186;-50
2022/05/25 01:01:43;;;;;;;9.77;7.28;;;10.30;99.90;;;;;;5053227;28;20542;-50
2022/05/25 01:04:09;;;;;;;10.52;7.47;;;10.20;99.90;;;;;;5036347;28;20048;-52
2022/05/25 01:06:35;;;;;;;12.18;8.25;;;10.20;99.90;;;;;;5053385;28;20112;-50
2022/05/25 01:09:21;;;;;;;12.95;8.57;;;10.10;99.90;;;;;;5054094;28;20041;-52
2022/05/25 01:11:46;;;;;;;10.93;7.97;;;10.10;99.90;;;;;;5053838;28;20052;-51
2022/05/25 01:14:38;;;;;;;12.95;8.30;;;10.10;99.90;;;;;;5053169;28;20037;-52
2022/05/25 01:17:13;;;;;;;11.73;8.07;;;10.10;99.90;;;;;;5053727;28;20045;-51
2022/05/25 01:19:56;;;;;;;13.27;8.63;;;10.00;99.90;;;;;;5053483;28;20049;-51
2022/05/25 01:22:44;;;;;;;12.50;9.02;;;10.10;99.90;;;;;;5051796;28;20744;-52
2022/05/25 01:25:09;;;;;;;13.30;9.63;;;10.10;99.90;;;;;;5053973;28;20049;-51
2022/05/25 01:27:37;;;;;;;12.15;9.48;;;10.10;99.90;;;;;;5053058;28;20100;-52
2022/05/25 01:30:22;;;;;;;12.75;9.38;;;10.00;99.90;;;;;;5035970;28;20096;-53
2022/05/25 01:33:22;;;;;;;15.55;9.85;;;10.00;99.90;;;;;;5053693;28;20465;-49
2022/05/25 01:35:47;;;;;;;14.45;9.70;;;10.00;99.90;;;;;;5033393;28;20489;-52
2022/05/25 01:38:33;;;;;;;13.07;9.57;;;9.90;99.90;;;;;;5053816;28;20097;-53
2022/05/25 01:41:11;;;;;;;15.70;9.40;;;10.00;99.90;;;;;;5052800;28;20043;-50
2022/05/25 01:44:04;;;;;;;13.57;10.02;;;10.10;99.90;;;;;;5051775;28;20061;-50
2022/05/25 01:46:54;;;;;;;14.13;8.85;;;10.00;99.90;;;;;;5053534;28;20342;-51
2022/05/25 01:49:28;;;;;;;12.57;9.63;;;10.00;99.90;;;;;;5052596;28;20041;-51
2022/05/25 01:51:58;;;;;;;14.65;10.10;;;10.00;99.90;;;;;;5051923;28;20029;-52
2022/05/25 01:54:28;;;;;;;13.73;10.43;;;10.00;99.90;;;;;;5052804;28;20045;-52
2022/05/25 01:56:57;;;;;;;14.05;10.27;;;9.90;99.90;;;;;;5052572;28;20029;-52
2022/05/25 01:59:23;;;;;;;15.80;10.20;;;9.90;99.90;;;;;;5053111;28;20085;-53
2022/05/25 02:04:40;;;;;;;15.55;10.38;;;9.80;99.90;;;;;;5030898;28;20049;-51
2022/05/25 02:07:15;;;;;;;13.20;9.77;;;9.80;99.90;;;;;;5053034;28;20033;-49
2022/05/25 02:10:07;;;;;;;15.63;9.82;;;9.90;99.90;;;;;;5033914;28;20037;-52
2022/05/25 02:12:46;;;;;;;14.98;11.32;;;9.90;99.90;;;;;;5053159;28;20049;-48
2022/05/25 02:15:11;;;;;;;15.40;9.93;;;9.90;99.90;;;;;;5052338;28;20598;-51
2022/05/25 02:17:49;;;;;;;16.77;10.43;;;9.90;99.90;;;;;;5052550;28;20076;-51
2022/05/25 02:20:46;;;;;;;14.48;10.43;;;9.90;99.90;;;;;;5051397;28;20060;-51
2022/05/25 02:23:25;;;;;;;16.00;10.77;;;9.80;99.90;;;;;;5020608;28;20045;-51
2022/05/25 02:26:02;;;;;;;14.35;10.27;;;9.90;99.90;;;;;;5052625;28;20104;-49
2022/05/25 02:28:39;;;;;;;17.00;11.55;;;9.80;99.90;;;;;;5052536;28;20033;-52
2022/05/25 02:31:08;;;;;;;14.30;10.60;;;9.70;99.90;;;;;;5051354;28;20044;-50
2022/05/25 02:33:39;;;;;;;13.55;10.43;;;9.60;99.90;;;;;;5053140;28;20037;-51
2022/05/25 02:36:08;;;;;;;17.38;11.40;;;9.60;99.90;;;;;;5033343;28;20045;-51
2022/05/25 02:38:37;;;;;;;16.90;11.73;;;9.50;99.90;;;;;;5052283;28;20044;-53
2022/05/25 02:41:08;;;;;;;16.38;11.38;;;9.50;99.90;;;;;;5051968;28;20025;-52
2022/05/25 02:43:36;;;;;;;15.93;11.27;;;9.50;99.90;;;;;;5052125;28;20460;-52
2022/05/25 02:46:02;;;;;;;16.25;11.85;;;9.50;99.90;;;;;;5052007;28;20037;-49
2022/05/25 02:48:28;;;;;;;17.10;11.35;;;9.60;99.90;;;;;;5050929;28;20041;-54
2022/05/25 02:50:54;;;;;;;18.50;13.25;;;9.40;99.90;;;;;;5052694;28;20102;-51
2022/05/25 02:53:20;;;;;;;16.42;11.63;;;9.60;99.90;;;;;;5050437;28;20080;-51
2022/05/25 02:55:46;;;;;;;18.58;11.93;;;9.60;99.90;;;;;;5051432;28;20076;-53
2022/05/25 02:58:11;;;;;;;16.45;11.77;;;9.50;99.90;;;;;;5050947;28;20107;-51
2022/05/25 03:00:37;;;;;;;18.45;12.43;;;9.60;99.90;;;;;;5034055;28;20053;-50
2022/05/25 03:03:03;;;;;;;18.65;12.55;;;9.60;99.90;;;;;;5052079;28;20045;-52
2022/05/25 03:05:28;;;;;;;19.05;12.25;;;9.60;99.90;;;;;;5051357;28;20037;-50
2022/05/25 03:07:54;;;;;;;20.33;13.48;;;9.60;99.90;;;;;;5051249;28;20045;-49
2022/05/25 03:10:20;;;;;;;17.85;12.63;;;9.60;99.90;;;;;;5050798;28;20041;-48
2022/05/25 03:12:46;;;;;;;19.88;11.65;;;9.60;99.90;;;;;;5051957;28;20104;-51
2022/05/25 03:15:13;;;;;;;19.88;13.45;;;9.50;99.90;;;;;;5051510;28;21508;-50
2022/05/25 03:17:40;;;;;;;20.55;13.43;;;9.40;99.90;;;;;;5051350;28;20037;-50
2022/05/25 03:20:06;;;;;;;20.73;13.85;;;9.50;99.90;;;;;;5033700;28;20060;-52
2022/05/25 03:22:34;;;;;;;20.88;14.30;;;9.40;99.90;;;;;;5050797;28;20076;-52
2022/05/25 03:25:00;;;;;;;21.63;13.93;;;9.40;99.90;;;;;;5051984;28;20045;-50
2022/05/25 03:27:25;;;;;;;21.45;14.07;;;9.40;99.90;;;;;;5050665;28;20075;-53
2022/05/25 03:29:51;;;;;;;23.73;14.80;;;9.40;99.90;;;;;;5050411;28;20045;-50
2022/05/25 03:32:17;;;;;;;20.75;13.65;;;9.40;99.90;;;;;;5050812;28;20037;-49
2022/05/25 03:34:47;;;;;;;19.23;14.32;;;9.40;99.90;;;;;;5051419;28;20044;-51
2022/05/25 03:37:13;;;;;;;19.23;13.57;;;9.40;99.90;;;;;;5051555;28;20049;-53
2022/05/25 03:39:39;;;;;;;23.92;14.07;;;9.60;99.90;;;;;;5049179;28;20116;-52
2022/05/25 03:42:07;;;;;;;21.98;14.70;;;9.40;99.90;;;;;;5051787;28;20108;-51
2022/05/25 03:44:34;;;;;;;19.55;13.27;;;9.40;99.90;;;;;;5050534;28;20043;-53
2022/05/25 03:46:59;;;;;;;20.70;14.68;;;9.40;99.90;;;;;;5051446;28;20036;-49
2022/05/25 03:49:26;;;;;;;22.58;15.05;;;9.50;99.90;;;;;;5050898;28;21398;-49
2022/05/25 03:51:51;;;;;;;25.92;15.93;;;9.50;99.90;;;;;;5051186;28;20049;-50
2022/05/25 03:54:18;;;;;;;20.70;14.32;;;9.40;99.90;;;;;;5051209;28;20131;-50
2022/05/25 03:56:43;;;;;;;22.20;15.85;;;9.40;99.90;;;;;;5032288;28;20045;-51
2022/05/25 03:59:09;;;;;;;23.92;15.35;;;9.50;99.90;;;;;;5050729;28;20451;-50
2022/05/25 04:01:36;;;;;;;21.60;15.13;;;9.50;99.90;;;;;;5049073;28;20041;-51
2022/05/25 04:04:02;;;;;;;22.27;15.90;;;9.50;99.90;;;;;;5051162;28;20053;-52
2022/05/25 04:06:28;;;;;;;22.13;15.65;;;9.50;99.90;;;;;;5050663;28;20037;-49
2022/05/25 04:08:53;;;;;;;21.17;15.50;;;9.50;99.90;;;;;;5050928;28;20413;-51
2022/05/25 04:11:19;;;;;;;21.63;15.23;;;9.50;99.90;;;;;;5015489;28;20094;-50
2022/05/25 04:13:45;;;;;;;23.63;16.00;;;9.50;99.90;;;;;;5050503;28;20049;-50
2022/05/25 04:16:11;;;;;;;22.98;15.38;;;9.50;99.90;;;;;;5051190;28;20029;-50
2022/05/25 04:18:37;;;;;;;24.02;16.17;;;9.60;99.90;;;;;;5049988;28;20056;-52
2022/05/25 04:21:03;;;;;;;21.90;15.90;;;9.60;99.90;;;;;;5051488;28;20057;-51
2022/05/25 04:23:29;;;;;;;24.10;15.70;;;9.60;99.90;;;;;;5049675;28;20069;-50
2022/05/25 04:25:56;;;;;;;22.35;15.93;;;9.60;99.90;;;;;;5032971;28;20092;-54
2022/05/25 04:28:22;;;;;;;21.33;15.18;;;9.70;99.90;;;;;;5032818;28;20063;-52
2022/05/25 04:30:48;;;;;;;22.98;15.57;;;9.80;99.90;;;;;;5050453;28;20060;-51
2022/05/25 04:33:14;;;;;;;20.38;14.43;;;9.70;99.90;;;;;;5050175;28;20041;-52
2022/05/25 04:35:40;;;;;;;22.33;16.45;;;9.90;99.90;;;;;;5049473;28;20096;-54
2022/05/25 04:38:07;;;;;;;24.40;15.85;;;9.90;99.90;;;;;;5051114;28;20084;-53
2022/05/25 04:40:35;;;;;;;21.58;15.60;;;9.90;99.90;;;;;;5049892;28;20048;-52
2022/05/25 04:43:07;;;;;;;20.17;15.00;;;10.00;99.90;;;;;;5050176;28;20578;-51
2022/05/25 04:45:33;;;;;;;22.88;14.52;;;10.10;99.90;;;;;;5050340;28;20091;-52
2022/05/25 04:48:00;;;;;;;19.80;14.20;;;10.00;99.90;;;;;;5050112;28;20025;-53
2022/05/25 04:50:30;;;;;;;21.42;14.75;;;10.20;99.90;;;;;;5050977;28;20171;-53
2022/05/25 04:52:59;;;;;;;21.13;14.55;;;10.20;99.90;;;;;;5049269;28;20045;-52
2022/05/25 04:58:34;;;;;;;21.95;14.95;;;10.30;99.90;;;;;;5050119;28;21365;-54
2022/05/25 05:01:01;;;;;;;21.20;13.52;;;10.50;99.90;;;;;;5050067;28;20048;-53
2022/05/25 05:03:28;;;;;;;22.60;15.25;;;10.60;99.90;;;;;;5049566;28;20037;-52
2022/05/25 05:05:55;;;;;;;20.00;13.52;;;10.60;99.90;;;;;;5049435;28;20047;-53
2022/05/25 05:08:21;;;;;;;18.40;14.07;;;10.70;99.90;;;;;;5050792;28;20096;-53
2022/05/25 05:10:48;;;;;;;19.05;13.27;;;10.80;99.90;;;;;;5053625;28;20037;-50
2022/05/25 05:13:14;;;;;;;19.42;13.25;;;11.00;99.90;;;;;;5053097;28;20052;-49
2022/05/25 05:15:43;;;;;;;21.30;13.80;;;11.00;99.90;;;;;;5054091;28;20037;-51
2022/05/25 05:18:09;;;;;;;18.50;12.98;;;11.00;99.90;;;;;;5053034;28;20075;-54
2022/05/25 05:20:35;;;;;;;18.92;12.55;;;11.20;99.90;;;;;;5054231;28;20089;-53
2022/05/25 05:23:01;;;;;;;21.63;13.23;;;11.20;99.90;;;;;;5052841;28;20059;-53
2022/05/25 05:25:26;;;;;;;17.35;12.25;;;11.40;99.90;;;;;;5054253;28;20072;-52
2022/05/25 05:27:53;;;;;;;19.58;13.43;;;11.40;99.90;;;;;;5053110;28;20095;-52
2022/05/25 05:30:22;;;;;;;17.88;11.68;;;11.60;99.90;;;;;;5053476;28;20052;-51
2022/05/25 05:32:48;;;;;;;18.60;12.93;;;11.60;99.90;;;;;;5035659;28;20040;-51
2022/05/25 05:35:14;;;;;;;18.00;12.32;;;11.70;99.90;;;;;;5053258;28;20064;-51
2022/05/25 05:37:52;;;;;;;15.88;11.35;;;11.80;99.90;;;;;;5053950;28;20127;-53
2022/05/25 05:40:19;;;;;;;19.50;12.60;;;12.00;99.90;;;;;;5051794;28;20060;-53
2022/05/25 05:42:47;;;;;;;20.55;12.98;;;12.10;99.90;;;;;;5035292;28;20033;-51
2022/05/25 05:45:16;;;;;;;17.13;12.88;;;12.20;99.90;;;;;;5035462;28;20044;-52
2022/05/25 05:47:52;;;;;;;17.45;11.90;;;12.30;99.90;;;;;;5052984;28;20036;-52
2022/05/25 05:50:19;;;;;;;17.00;12.70;;;12.30;99.90;;;;;;5052779;28;20049;-52
2022/05/25 05:52:45;;;;;;;18.23;11.90;;;12.40;99.90;;;;;;5051500;28;20033;-54
2022/05/25 05:55:13;;;;;;;19.02;12.63;;;12.40;99.90;;;;;;5035822;28;20179;-53
2022/05/25 05:57:39;;;;;;;16.45;11.75;;;12.50;99.90;;;;;;5051949;28;20049;-52
2022/05/25 06:00:09;;;;;;;17.52;11.25;;;12.60;99.90;;;;;;5050899;28;20052;-53
2022/05/25 06:02:34;;;;;;;14.50;10.57;;;12.60;99.90;;;;;;5050291;28;20037;-52
2022/05/25 06:05:00;;;;;;;15.98;11.00;;;12.80;99.90;;;;;;5049890;28;20047;-54
2022/05/25 06:07:26;;;;;;;17.13;10.77;;;12.90;99.90;;;;;;5050325;28;20051;-53
2022/05/25 06:09:51;;;;;;;13.68;9.75;;;13.00;99.90;;;;;;5048861;28;20526;-54
2022/05/25 06:12:17;;;;;;;14.63;10.18;;;13.00;99.90;;;;;;5030827;28;20033;-53
2022/05/25 06:14:43;;;;;;;15.95;9.90;;;13.20;99.90;;;;;;5049034;28;20063;-53
2022/05/25 06:19:54;;;;;;;13.30;9.80;;;13.40;99.90;;;;;;5049454;28;20049;-53
2022/05/25 06:22:20;;;;;;;15.90;10.35;;;13.50;99.90;;;;;;5047680;28;20036;-54
2022/05/25 06:24:49;;;;;;;18.35;9.85;;;13.50;99.90;;;;;;5049202;28;20048;-53
2022/05/25 06:27:15;;;;;;;15.30;9.65;;;13.40;99.90;;;;;;5049006;28;20041;-53
2022/05/25 06:29:44;;;;;;;12.32;9.45;;;13.70;99.90;;;;;;5050168;28;20719;-54
2022/05/25 06:32:12;;;;;;;16.17;10.30;;;13.80;99.90;;;;;;5031101;28;20048;-52
2022/05/25 06:34:39;;;;;;;13.48;9.05;;;13.80;99.90;;;;;;5049443;28;20075;-52
2022/05/25 06:37:05;;;;;;;16.08;8.95;;;13.90;99.90;;;;;;5049228;28;20052;-52
2022/05/25 06:39:36;;;;;;;13.00;8.68;;;14.00;99.90;;;;;;5049042;28;20032;-54
2022/05/25 06:42:03;;;;;;;22.75;9.25;;;13.80;99.90;;;;;;5030494;28;20078;-53
2022/05/25 06:44:28;;;;;;;11.93;8.25;;;14.00;99.90;;;;;;5048528;28;20052;-52
2022/05/25 06:46:54;;;;;;;12.05;7.72;;;14.00;99.90;;;;;;5049162;28;20045;-53
2022/05/25 06:49:20;;;;;;;12.82;8.18;;;14.20;99.90;;;;;;5048341;28;20049;-54
2022/05/25 06:51:45;;;;;;;12.05;8.05;;;14.10;99.90;;;;;;5029619;28;20029;-54
2022/05/25 06:54:16;;;;;;;11.07;6.93;;;14.20;99.90;;;;;;5048632;28;20049;-55
2022/05/25 06:56:42;;;;;;;12.15;7.32;;;14.20;99.90;;;;;;5048280;28;20048;-54
2022/05/25 06:59:08;;;;;;;10.65;6.70;;;14.10;99.90;;;;;;5049320;28;20596;-55
2022/05/25 07:01:35;;;;;;;12.73;7.38;;;14.00;99.90;;;;;;5047861;28;20033;-54
2022/05/25 07:04:02;;;;;;;11.65;6.60;;;14.10;99.90;;;;;;5049522;28;20032;-55
2022/05/25 07:06:27;;;;;;;11.95;5.90;;;14.20;99.90;;;;;;5030729;28;20113;-54
2022/05/25 07:08:54;;;;;;;11.43;6.85;;;14.30;99.90;;;;;;5049171;28;20091;-53
2022/05/25 07:11:21;;;;;;;10.57;6.10;;;14.40;99.90;;;;;;5048449;28;20040;-50
2022/05/25 07:13:47;;;;;;;9.27;5.55;;;14.40;99.90;;;;;;5048060;28;20053;-54
2022/05/25 07:16:16;;;;;;;10.27;5.47;;;14.40;99.90;;;;;;5030727;28;20041;-51
2022/05/25 07:18:43;;;;;;;9.55;5.88;;;14.30;99.90;;;;;;5047714;28;20418;-53
2022/05/25 07:21:17;;;;;;;12.35;6.50;;;14.60;99.90;;;;;;5048923;28;20037;-52
2022/05/25 07:23:45;;;;;;;13.98;5.93;;;14.90;99.90;;;;;;5047332;28;20071;-54
2022/05/25 07:26:11;;;;;;;12.38;6.65;;;15.00;99.90;;;;;;5047877;28;20041;-53
2022/05/25 07:28:38;;;;;;;12.45;6.85;;;15.00;99.90;;;;;;5048490;28;20052;-53
2022/05/25 07:31:18;;;;;;;9.40;6.25;;;15.10;99.90;;;;;;5047592;28;20045;-54
2022/05/25 07:33:49;;;;;;;10.35;6.13;;;15.20;99.90;;;;;;5047620;28;20052;-54
2022/05/25 07:36:15;;;;;;;14.27;7.22;;;15.30;99.90;;;;;;5047022;28;20103;-52
2022/05/25 07:38:46;;;;;;;12.50;6.45;;;15.10;99.90;;;;;;5047850;28;20104;-52
2022/05/25 07:41:12;;;;;;;9.95;5.70;;;15.10;99.90;;;;;;5048214;28;20049;-53
2022/05/25 07:43:39;;;;;;;9.27;6.22;;;14.90;99.90;;;;;;5048195;28;20480;-54
2022/05/25 07:46:05;;;;;;;10.77;6.60;;;15.00;99.90;;;;;;5048080;28;20052;-53
2022/05/25 07:48:30;;;;;;;11.48;6.97;;;14.90;99.90;;;;;;5046668;28;20044;-53
2022/05/25 07:50:57;;;;;;;11.68;5.93;;;15.20;99.90;;;;;;5048799;28;20508;-53
2022/05/25 07:56:07;;;;;;;9.88;6.03;;;15.10;99.90;;;;;;5047034;28;20056;-54
2022/05/25 07:58:33;;;;;;;9.20;6.55;;;15.10;99.90;;;;;;5047631;28;20052;-53
2022/05/25 08:01:09;;;;;;;10.88;6.85;;;15.40;99.90;;;;;;5029055;28;20167;-53
2022/05/25 08:06:19;;;;;;;9.30;5.95;;;15.70;99.90;;;;;;5047684;28;20377;-53
2022/05/25 08:08:45;;;;;;;13.77;7.55;;;15.80;99.90;;;;;;5048111;28;20033;-52
2022/05/25 08:11:15;;;;;;;11.15;6.70;;;16.10;99.90;;;;;;5048048;28;20119;-54
2022/05/25 08:13:46;;;;;;;9.48;6.53;;;16.10;99.90;;;;;;5047328;28;20085;-54
2022/05/25 08:16:12;;;;;;;10.82;6.38;;;16.00;99.90;;;;;;5048353;28;20065;-54
2022/05/25 08:18:38;;;;;;;11.10;5.65;;;15.80;99.90;;;;;;5045593;28;20048;-53
2022/05/25 08:21:05;;;;;;;12.20;6.10;;;15.90;99.90;;;;;;5048524;28;20190;-54
2022/05/25 08:23:30;;;;;;;11.27;5.60;;;15.90;99.90;;;;;;5047078;28;21193;-53
2022/05/25 08:25:56;;;;;;;8.30;5.25;;;15.90;99.90;;;;;;5047996;28;20521;-53
2022/05/25 08:28:22;;;;;;;8.45;5.38;;;16.10;99.90;;;;;;5047101;28;20138;-53
2022/05/25 08:30:49;;;;;;;9.90;7.05;;;16.50;99.90;;;;;;5047000;28;20059;-51
2022/05/25 08:33:20;;;;;;;10.57;6.07;;;16.70;99.90;;;;;;5047925;28;20037;-52
2022/05/25 08:35:46;;;;;;;9.18;6.55;;;16.70;99.90;;;;;;5046582;28;20045;-52
2022/05/25 08:38:12;;;;;;;8.02;6.00;;;16.50;99.90;;;;;;5048218;28;20069;-53
2022/05/25 08:40:39;;;;;;;7.45;5.20;;;16.30;99.90;;;;;;5047107;28;20052;-52
2022/05/25 08:43:46;;;;;;;7.93;5.75;;;16.30;99.90;;;;;;5047551;28;20037;-50
2022/05/25 08:46:18;;;;;;;8.82;5.70;;;16.50;99.90;;;;;;5012838;28;20089;-51
2022/05/25 08:48:44;;;;;;;9.30;4.95;;;16.50;99.90;;;;;;5049465;28;20112;-51
2022/05/25 08:51:16;;;;;;;11.77;4.88;;;16.40;99.90;;;;;;5051196;28;20071;-51
2022/05/25 08:53:42;;;;;;;8.45;4.40;;;16.50;99.90;;;;;;5050838;28;20037;-51
2022/05/25 08:56:38;;;;;;;8.45;4.85;;;16.50;99.90;;;;;;5051053;28;20107;-52
2022/05/25 08:59:55;;;;;;;9.90;4.93;;;16.70;99.90;;;;;;5052514;28;20075;-52
2022/05/25 09:02:42;;;;;;;6.85;4.90;;;16.70;99.90;;;;;;5019401;28;20068;-53
2022/05/25 09:05:20;;;;;;;8.43;4.85;;;16.80;99.90;;;;;;5054001;28;20053;-53
2022/05/25 09:08:10;;;;;;;6.90;4.20;;;16.70;99.90;;;;;;5036817;28;20044;-53
2022/05/25 09:10:42;;;;;;;8.55;4.45;;;16.70;99.90;;;;;;5053580;28;20033;-53
2022/05/25 09:13:40;;;;;;;7.63;4.35;;;16.60;99.90;;;;;;5054021;28;20041;-53
2022/05/25 09:16:16;;;;;;;7.38;3.95;;;16.60;99.90;;;;;;5035803;28;20060;-52
2022/05/25 09:19:08;;;;;;;8.70;4.68;;;16.70;99.90;;;;;;5052443;28;20060;-52
2022/05/25 09:21:37;;;;;;;;;;;16.90;99.90;;;;;;5045427;28;20056;-51
2022/05/25 09:24:19;;;;;;;7.72;3.67;;;17.00;99.90;;;;;;5053992;28;19924;-55
2022/05/25 09:26:45;;;;;;;7.57;4.20;;;17.10;99.90;;;;;;5053082;28;20036;-50
2022/05/25 09:29:12;;;;;;;7.30;4.10;;;17.30;99.90;;;;;;5053764;28;20209;-52
2022/05/25 09:31:51;;;;;;;7.50;4.03;;;17.10;99.90;;;;;;5051921;28;20382;-52
2022/05/25 09:34:42;;;;;;;8.65;4.40;;;17.10;99.90;;;;;;5053383;28;20037;-56
2022/05/25 09:37:34;;;;;;;8.48;4.35;;;17.20;99.90;;;;;;5051307;28;20457;-53
2022/05/25 09:40:28;;;;;;;9.65;4.32;;;17.10;99.90;;;;;;5051204;28;20073;-52
2022/05/25 09:42:57;;;;;;;7.97;4.05;;;17.10;99.90;;;;;;5039140;28;20598;-53
2022/05/25 09:45:29;;;;;;;9.05;4.47;;;17.10;99.90;;;;;;5053516;28;20033;-52
2022/05/25 09:47:55;;;;;;;7.55;3.67;;;17.10;99.90;;;;;;5052647;28;20083;-52
2022/05/25 09:50:26;;;;;;;7.88;3.80;;;17.10;99.90;;;;;;5052317;28;20109;-50
2022/05/25 09:52:53;;;;;;;7.95;4.00;;;17.10;99.90;;;;;;5051562;28;20037;-53
2022/05/25 09:55:24;;;;;;;7.28;4.20;;;16.90;99.90;;;;;;5053000;28;20029;-52
2022/05/25 09:58:02;;;;;;;7.63;4.28;;;16.90;99.90;;;;;;5051918;28;20066;-51
2022/05/25 10:00:40;;;;;;;10.93;4.65;;;17.30;99.90;;;;;;5051467;28;20339;-53
2022/05/25 10:03:10;;;;;;;8.35;4.15;;;17.30;99.90;;;;;;5053115;28;21630;-53
2022/05/25 10:05:56;;;;;;;7.80;4.43;;;17.30;99.90;;;;;;5051672;28;20658;-52
2022/05/25 10:08:39;;;;;;;7.47;4.55;;;17.20;99.90;;;;;;5052407;28;20048;-53
2022/05/25 10:11:27;;;;;;;10.38;5.40;;;17.10;99.90;;;;;;5052627;28;20049;-51
2022/05/25 10:14:14;;;;;;;7.72;4.53;;;17.10;99.90;;;;;;5051500;28;20041;-54
2022/05/25 10:16:40;;;;;;;7.65;4.20;;;16.90;99.90;;;;;;5052774;28;20068;-52
2022/05/25 10:19:14;;;;;;;9.48;4.78;;;16.80;99.90;;;;;;5051285;28;20075;-53
2022/05/25 10:21:45;;;;;;;6.93;4.63;;;16.50;99.90;;;;;;5050793;28;20037;-52
2022/05/25 10:24:21;;;;;;;8.10;4.55;;;16.40;99.90;;;;;;5052162;28;20378;-51
2022/05/25 10:26:54;;;;;;;10.10;5.03;;;16.50;99.90;;;;;;5051574;28;20838;-52
2022/05/25 10:38:27;;;;;;;9.13;5.28;;;16.40;99.90;;;;;;5052896;28;20049;-53
2022/05/25 10:40:55;;;;;;;7.75;3.60;;;16.40;99.90;;;;;;5052051;28;20080;-53
2022/05/25 10:43:30;;;;;;;7.35;3.72;;;16.70;99.90;;;;;;5051985;28;20052;-53
2022/05/25 10:46:00;;;;;;;8.77;4.88;;;16.70;99.90;;;;;;5052068;28;20052;-53
2022/05/25 10:48:52;;;;;;;10.13;5.35;;;16.60;99.90;;;;;;5050749;28;20025;-52
2022/05/25 10:51:28;;;;;;;9.48;5.68;;;16.60;99.90;;;;;;5051418;28;20123;-48
2022/05/25 10:57:39;;;;;;;9.43;4.82;;;16.00;99.90;;;;;;5049805;28;20052;-51
2022/05/25 11:00:10;;;;;;;12.05;3.88;;;14.30;99.90;;;;;;5051223;28;20079;-58
2022/05/25 11:02:48;;;;;;;7.35;2.63;;;13.00;99.90;;;;;;5033331;28;20548;-58
2022/05/25 11:06:01;;;;;;;7.43;2.53;;;12.30;99.90;;;;;;5049925;28;20045;-58
2022/05/25 11:08:33;;;;;;;6.00;2.67;;;12.30;99.90;;;;;;4989818;28;20060;-58
2022/05/25 11:11:10;;;;;;;6.35;3.30;;;12.20;99.90;;;;;;5051920;28;20049;-58
2022/05/25 11:13:44;;;;;;;6.45;2.80;;;12.50;99.90;;;;;;5051229;28;20103;-57
2022/05/25 11:16:32;;;;;;;7.32;4.05;;;12.70;99.90;;;;;;5051686;28;20049;-57
2022/05/25 11:19:17;;;;;;;6.18;3.85;;;13.00;99.90;;;;;;5050156;28;20132;-56
2022/05/25 11:22:07;;;;;;;8.75;5.22;;;13.10;99.90;;;;;;5051147;28;20619;-57
2022/05/25 11:24:49;;;;;;;6.28;4.07;;;13.40;99.90;;;;;;5051765;28;20061;-56
2022/05/25 11:27:29;;;;;;;9.63;6.28;;;13.50;99.90;;;;;;5049446;28;20037;-56
2022/05/25 11:30:26;;;;;;;8.25;5.70;;;13.80;99.90;;;;;;5051421;28;20127;-56
2022/05/25 11:32:58;;;;;;;7.88;4.82;;;14.10;99.90;;;;;;5052210;28;20045;-55
2022/05/25 11:35:45;;;;;;;6.78;4.15;;;14.20;99.90;;;;;;5050354;28;20033;-54
2022/05/25 11:38:29;;;;;;;10.50;6.60;;;14.60;99.90;;;;;;5044344;28;20045;-55
2022/05/25 11:41:07;;;;;;;7.97;5.50;;;15.00;99.90;;;;;;5051471;28;21112;-55
2022/05/25 11:43:53;;;;;;;10.57;6.50;;;15.10;99.90;;;;;;5051240;28;20056;-56
2022/05/25 11:46:44;;;;;;;10.68;6.60;;;15.10;99.90;;;;;;5051466;28;20055;-55
2022/05/25 11:49:19;;;;;;;8.13;6.03;;;14.90;99.90;;;;;;5050443;28;20075;-56
2022/05/25 11:52:12;;;;;;;11.82;7.47;;;14.80;99.90;;;;;;5050022;28;20104;-56
2022/05/25 11:55:02;;;;;;;12.23;9.55;;;14.90;99.90;;;;;;5051260;28;20405;-54
2022/05/25 11:57:28;;;;;;;15.00;9.73;;;15.30;99.90;;;;;;5050237;28;20059;-53
2022/05/25 12:00:04;;;;;;;15.70;10.65;;;15.50;99.90;;;;;;5032744;28;20525;-56
2022/05/25 12:02:52;;;;;;;11.85;9.85;;;15.60;99.90;;;;;;5050719;28;20513;-54
2022/05/25 12:05:39;;;;;;;11.55;9.55;;;15.70;99.90;;;;;;5032318;28;20045;-54
2022/05/25 12:08:14;;;;;;;15.75;9.93;;;16.10;99.90;;;;;;5046526;28;20041;-55
2022/05/25 12:10:43;;;;;;;10.65;4.53;;;16.60;99.90;;;;;;5029021;28;21164;-54
2022/05/25 12:13:21;;;;;;;9.35;3.60;;;16.40;99.90;;;;;;5046374;28;20045;-55
2022/05/25 12:16:08;;;;;;;5.45;2.47;;;16.30;99.90;;;;;;5048119;28;20108;-54
2022/05/25 12:18:52;;;;;;;7.07;1.77;;;16.30;99.90;;;;;;5046193;28;20049;-53
2022/05/25 12:21:30;;;;;;;6.03;1.65;;;16.40;99.90;;;;;;5051681;28;20125;-55
2022/05/25 12:24:05;;;;;;;5.60;1.80;;;16.20;99.90;;;;;;5051266;28;20535;-54
2022/05/25 12:26:34;;;;;;;6.00;1.38;;;16.20;99.90;;;;;;5050658;28;20044;-55
2022/05/25 12:29:21;;;;;;;5.45;1.33;;;16.30;99.90;;;;;;5048872;28;20041;-56
2022/05/25 12:31:51;;;;;;;5.63;1.23;;;16.40;99.90;;;;;;5050035;28;20037;-55
2022/05/25 12:34:23;;;;;;;4.18;1.13;;;16.50;99.90;;;;;;5050607;28;20674;-54
2022/05/25 12:36:51;;;;;;;3.72;1.30;;;16.60;99.90;;;;;;5050213;28;20535;-55
2022/05/25 12:39:42;;;;;;;9.85;1.70;;;16.70;99.90;;;;;;5050813;28;20057;-55
2022/05/25 12:42:22;;;;;;;5.00;1.15;;;16.90;99.90;;;;;;5046780;28;20052;-55
2022/05/25 12:50:53;;;;;;;5.70;1.00;;;17.50;99.90;;;;;;5052028;28;20095;-55
2022/05/25 12:53:41;;;;;;;6.13;1.30;;;17.20;99.90;;;;;;5052652;28;20033;-55
2022/05/25 12:56:15;;;;;;;4.55;1.15;;;16.90;99.90;;;;;;5052492;28;20544;-55
2022/05/25 12:58:51;;;;;;;7.28;1.63;;;17.20;99.90;;;;;;5053007;28;20064;-54
2022/05/25 13:01:23;;;;;;;4.18;1.30;;;17.30;99.90;;;;;;5052427;28;20052;-53
2022/05/25 13:03:48;;;;;;;3.90;1.15;;;17.10;99.90;;;;;;5054835;28;20065;-55
2022/05/25 13:06:22;;;;;;;6.68;1.35;;;16.90;99.90;;;;;;5053296;28;20033;-54
2022/05/25 13:08:50;;;;;;;5.53;1.20;;;16.90;99.90;;;;;;5053766;28;20801;-55
2022/05/25 13:11:50;;;;;;;3.65;0.93;;;16.70;99.90;;;;;;5053642;28;20098;-54
2022/05/25 13:14:16;;;;;;;7.35;2.28;;;16.90;99.90;;;;;;5053008;28;20033;-54
2022/05/25 13:16:42;;;;;;;6.30;1.02;;;16.70;99.90;;;;;;5054299;28;20041;-52
2022/05/25 13:19:15;;;;;;;6.78;1.55;;;17.00;99.90;;;;;;5053315;28;20051;-51
2022/05/25 13:21:43;;;;;;;4.78;1.33;;;17.00;99.90;;;;;;5053091;28;20071;-53
2022/05/25 13:24:15;;;;;;;6.57;1.30;;;17.10;99.90;;;;;;5053999;28;20107;-53
2022/05/25 13:26:55;;;;;;;6.82;1.27;;;16.90;99.90;;;;;;5053277;28;20055;-53
2022/05/25 13:29:39;;;;;;;5.50;1.13;;;16.60;99.90;;;;;;5054039;28;20444;-52
2022/05/25 13:32:12;;;;;;;7.13;1.10;;;16.70;99.90;;;;;;5053095;28;20208;-51
2022/05/25 13:34:38;;;;;;;5.72;1.17;;;16.60;99.90;;;;;;5053144;28;20049;-53
2022/05/25 13:37:13;;;;;;;6.95;1.20;;;16.50;99.90;;;;;;5053607;28;20041;-53
2022/05/25 13:39:41;;;;;;;3.30;1.05;;;16.40;99.90;;;;;;5052455;28;20056;-55
2022/05/25 13:42:13;;;;;;;3.92;1.13;;;16.30;99.90;;;;;;5052631;28;20041;-50